createdAt,value
2022-11-02T00:02:27.064Z,33.63
2022-11-02T00:04:55.750Z,26.37
2022-11-02T00:07:24.170Z,32.43
2022-11-02T00:09:52.586Z,24.97
2022-11-02T00:12:21.099Z,21.63
2022-11-02T00:14:49.520Z,23.43
2022-11-02T00:17:19.336Z,22.80
2022-11-02T00:19:47.935Z,16.73
2022-11-02T00:22:16.476Z,19.50
2022-11-02T00:24:44.955Z,22.63
2022-11-02T00:27:14.500Z,31.23
2022-11-02T00:29:42.948Z,28.60
2022-11-02T00:32:11.380Z,24.30
2022-11-02T00:34:41.280Z,16.77
2022-11-02T00:37:09.700Z,30.03
2022-11-02T00:39:38.119Z,21.17
2022-11-02T00:42:06.877Z,20.60
2022-11-02T00:44:35.287Z,24.77
2022-11-02T00:47:03.739Z,30.93
2022-11-02T00:49:32.276Z,13.67
2022-11-02T00:52:02.082Z,22.07
2022-11-02T00:54:30.969Z,25.23
2022-11-02T00:57:02.553Z,20.20
2022-11-02T00:59:30.996Z,12.97
2022-11-02T01:01:59.528Z,14.50
2022-11-02T01:04:28.200Z,14.40
2022-11-02T01:06:56.624Z,13.67
2022-11-02T01:09:26.507Z,16.33
2022-11-02T01:11:55.309Z,10.63
2022-11-02T01:14:24.135Z,16.43
2022-11-02T01:16:52.810Z,15.47
2022-11-02T01:19:21.421Z,9.10
2022-11-02T01:21:50.163Z,14.13
2022-11-02T01:24:18.691Z,11.17
2022-11-02T01:26:51.536Z,12.43
2022-11-02T01:29:19.971Z,9.87
2022-11-02T01:31:48.656Z,10.20
2022-11-02T01:34:17.384Z,15.50
2022-11-02T01:36:46.615Z,9.77
2022-11-02T01:39:15.280Z,9.80
2022-11-02T01:41:44.037Z,12.83
2022-11-02T01:44:33.039Z,12.63
2022-11-02T01:47:03.553Z,9.10
2022-11-02T01:49:34.200Z,10.07
2022-11-02T01:52:07.409Z,8.23
2022-11-02T01:54:39.539Z,10.67
2022-11-02T01:57:08.935Z,7.70
2022-11-02T01:59:40.745Z,11.47
2022-11-02T02:02:12.579Z,15.20
2022-11-02T02:04:41.502Z,22.80
2022-11-02T02:07:10.045Z,13.30
2022-11-02T02:09:38.538Z,15.50
2022-11-02T02:12:07.835Z,11.17
2022-11-02T02:14:37.223Z,14.07
2022-11-02T02:17:18.410Z,21.70
2022-11-02T02:19:50.260Z,12.87
2022-11-02T02:22:34.644Z,10.97
2022-11-02T02:25:14.019Z,7.83
2022-11-02T02:27:54.487Z,12.37
2022-11-02T02:30:23.256Z,19.63
2022-11-02T02:32:54.640Z,10.57
2022-11-02T02:35:29.051Z,19.00
2022-11-02T02:37:59.068Z,16.40
2022-11-02T02:40:31.999Z,18.00
2022-11-02T02:43:06.891Z,23.17
2022-11-02T02:45:36.819Z,14.30
2022-11-02T02:48:08.364Z,14.53
2022-11-02T02:50:39.284Z,16.43
2022-11-02T02:53:08.976Z,15.23
2022-11-02T02:55:39.896Z,19.17
2022-11-02T02:58:14.112Z,16.20
2022-11-02T03:00:42.831Z,14.00
2022-11-02T03:03:17.822Z,17.17
2022-11-02T03:05:57.385Z,22.30
2022-11-02T03:08:25.811Z,13.27
2022-11-02T03:10:59.033Z,20.03
2022-11-02T03:13:37.478Z,19.50
2022-11-02T03:16:09.475Z,20.63
2022-11-02T03:18:40.775Z,21.53
2022-11-02T03:21:14.196Z,13.10
2022-11-02T03:23:45.804Z,19.50
2022-11-02T03:26:16.372Z,25.37
2022-11-02T03:28:52.433Z,22.20
2022-11-02T03:31:25.151Z,19.23
2022-11-02T03:33:57.186Z,16.77
2022-11-02T03:36:29.352Z,19.50
2022-11-02T03:38:59.522Z,20.67
2022-11-02T03:41:29.083Z,17.80
2022-11-02T03:44:02.218Z,22.10
2022-11-02T03:46:31.881Z,18.50
2022-11-02T03:49:06.027Z,24.03
2022-11-02T03:51:39.284Z,13.83
2022-11-02T03:54:10.804Z,16.57
2022-11-02T03:56:41.495Z,18.43
2022-11-02T03:59:11.327Z,22.00
2022-11-02T04:01:41.015Z,19.80
2022-11-02T04:04:09.678Z,11.70
2022-11-02T04:06:38.519Z,15.90
2022-11-02T04:09:07.436Z,19.77
2022-11-02T04:11:53.224Z,20.87
2022-11-02T04:14:41.539Z,26.93
2022-11-02T04:17:28.467Z,29.03
2022-11-02T04:19:56.995Z,18.70
2022-11-02T04:22:42.993Z,17.53
2022-11-02T04:25:18.796Z,18.07
2022-11-02T04:27:48.526Z,21.00
2022-11-02T04:30:19.728Z,17.30
2022-11-02T04:33:06.630Z,12.40
2022-11-02T04:35:35.660Z,21.07
2022-11-02T04:38:22.162Z,22.70
2022-11-02T04:41:10.899Z,22.33
2022-11-02T04:43:39.443Z,22.00
2022-11-02T04:46:09.256Z,18.80
2022-11-02T04:48:37.804Z,19.33
2022-11-02T04:51:06.403Z,19.67
2022-11-02T04:53:35.404Z,19.23
2022-11-02T04:56:04.043Z,17.43
2022-11-02T04:58:32.492Z,19.60
2022-11-02T05:01:00.921Z,14.37
2022-11-02T05:03:30.836Z,22.90
2022-11-02T05:05:59.256Z,18.43
2022-11-02T05:08:27.682Z,25.77
2022-11-02T05:10:56.484Z,18.07
2022-11-02T05:13:24.917Z,20.63
2022-11-02T05:15:53.512Z,21.53
2022-11-02T05:20:58.290Z,22.10
2022-11-02T05:23:27.068Z,18.07
2022-11-02T05:25:56.291Z,21.70
2022-11-02T05:28:24.735Z,18.93
2022-11-02T05:30:53.984Z,26.50
2022-11-02T05:33:26.626Z,20.63
2022-11-02T05:35:59.448Z,16.47
2022-11-02T05:38:28.581Z,19.00
2022-11-02T05:40:57.919Z,21.57
2022-11-02T05:43:26.789Z,14.60
2022-11-02T05:45:56.219Z,18.37
2022-11-02T05:48:25.175Z,18.90
2022-11-02T05:50:57.609Z,16.23
2022-11-02T05:53:27.951Z,13.67
2022-11-02T05:55:59.308Z,22.17
2022-11-02T05:58:27.774Z,15.03
2022-11-02T06:00:56.255Z,19.73
2022-11-02T06:03:24.803Z,21.80
2022-11-02T06:05:57.926Z,22.70
2022-11-02T06:08:28.159Z,13.37
2022-11-02T06:10:56.604Z,17.67
2022-11-02T06:13:25.028Z,13.83
2022-11-02T06:15:53.552Z,23.47
2022-11-02T06:18:21.996Z,20.40
2022-11-02T06:20:50.528Z,22.17
2022-11-02T06:23:19.074Z,13.57
2022-11-02T06:25:53.631Z,14.10
2022-11-02T06:28:22.188Z,20.27
2022-11-02T06:30:51.019Z,19.90
2022-11-02T06:33:19.861Z,23.30
2022-11-02T06:35:48.855Z,17.73
2022-11-02T06:38:17.533Z,30.93
2022-11-02T06:40:46.053Z,23.43
2022-11-02T06:43:17.293Z,16.47
2022-11-02T06:45:46.826Z,21.27
2022-11-02T06:48:15.373Z,14.37
2022-11-02T06:50:43.929Z,17.03
2022-11-02T06:53:12.429Z,15.37
2022-11-02T06:55:40.983Z,23.67
2022-11-02T06:58:09.592Z,16.40
2022-11-02T07:00:39.455Z,12.97
2022-11-02T07:03:08.967Z,24.00
2022-11-02T07:05:37.964Z,19.93
2022-11-02T07:08:06.835Z,14.17
2022-11-02T07:10:36.404Z,16.37
2022-11-02T07:13:05.036Z,15.07
2022-11-02T07:15:33.840Z,12.53
2022-11-02T07:18:03.701Z,20.13
2022-11-02T07:20:32.110Z,16.40
2022-11-02T07:23:02.207Z,17.20
2022-11-02T07:25:32.163Z,16.37
2022-11-02T07:28:01.027Z,18.17
2022-11-02T07:30:29.620Z,12.20
2022-11-02T07:32:58.044Z,20.40
2022-11-02T07:35:27.881Z,8.33
2022-11-02T07:38:00.059Z,15.23
2022-11-02T07:40:29.015Z,13.53
2022-11-02T07:42:57.697Z,13.60
2022-11-02T07:45:27.040Z,12.80
2022-11-02T07:47:55.635Z,14.17
2022-11-02T07:50:24.734Z,21.60
2022-11-02T07:52:55.493Z,9.57
2022-11-02T07:55:25.083Z,10.63
2022-11-02T07:57:56.304Z,15.30
2022-11-02T08:00:25.098Z,13.67
2022-11-02T08:02:56.245Z,11.23
2022-11-02T08:05:24.780Z,12.97
2022-11-02T08:07:59.686Z,14.10
2022-11-02T08:10:28.700Z,10.27
2022-11-02T08:12:57.553Z,6.20
2022-11-02T08:15:25.994Z,8.70
2022-11-02T08:18:02.214Z,11.03
2022-11-02T08:20:30.925Z,14.27
2022-11-02T08:23:00.746Z,14.67
2022-11-02T08:25:29.324Z,13.17
2022-11-02T08:27:59.248Z,9.60
2022-11-02T08:30:28.020Z,9.60
2022-11-02T08:32:57.444Z,15.03
2022-11-02T08:35:26.135Z,10.93
2022-11-02T08:37:57.736Z,12.93
2022-11-02T08:40:27.850Z,11.20
2022-11-02T08:42:59.376Z,12.77
2022-11-02T08:45:28.189Z,12.60
2022-11-02T08:47:56.745Z,9.33
2022-11-02T08:50:25.595Z,12.60
2022-11-02T08:52:54.157Z,13.00
2022-11-02T08:55:22.616Z,12.73
2022-11-02T08:57:53.219Z,15.77
2022-11-02T09:00:22.342Z,10.47
2022-11-02T09:03:00.575Z,12.37
2022-11-02T09:05:29.191Z,12.83
2022-11-02T09:07:58.634Z,13.33
2022-11-02T09:10:27.303Z,12.57
2022-11-02T09:12:57.645Z,9.57
2022-11-02T09:15:26.083Z,11.80
2022-11-02T09:17:54.496Z,8.90
2022-11-02T09:20:23.468Z,14.67
2022-11-02T09:22:52.209Z,11.13
2022-11-02T09:25:20.692Z,16.10
2022-11-02T09:27:55.603Z,9.97
2022-11-02T09:30:26.458Z,10.37
2022-11-02T09:32:58.433Z,11.37
2022-11-02T09:35:27.435Z,11.97
2022-11-02T09:37:55.989Z,10.33
2022-11-02T09:40:25.739Z,13.97
2022-11-02T09:43:00.876Z,12.60
2022-11-02T09:45:32.516Z,15.27
2022-11-02T09:48:16.842Z,16.57
2022-11-02T09:50:50.072Z,13.37
2022-11-02T09:53:20.984Z,10.00
2022-11-02T09:55:51.948Z,9.23
2022-11-02T09:58:23.231Z,15.17
2022-11-02T10:00:57.983Z,6.90
2022-11-02T10:03:35.949Z,11.47
2022-11-02T10:06:06.285Z,10.17
2022-11-02T10:08:40.592Z,9.10
2022-11-02T10:11:12.856Z,11.73
2022-11-02T10:13:44.346Z,10.03
2022-11-02T10:16:16.668Z,10.63
2022-11-02T10:18:49.387Z,11.33
2022-11-02T10:21:20.861Z,9.10
2022-11-02T10:23:51.559Z,6.67
2022-11-02T10:26:21.286Z,7.60
2022-11-02T10:28:50.784Z,6.60
2022-11-02T10:31:29.172Z,11.13
2022-11-02T10:33:58.624Z,6.30
2022-11-02T10:36:39.147Z,9.87
2022-11-02T10:39:22.377Z,13.43
2022-11-02T10:41:57.540Z,10.60
2022-11-02T10:44:32.156Z,8.00
2022-11-02T10:47:06.923Z,10.90
2022-11-02T10:49:50.172Z,9.37
2022-11-02T10:52:19.092Z,7.87
2022-11-02T10:54:47.622Z,8.07
2022-11-02T10:57:16.764Z,7.90
2022-11-02T10:59:45.411Z,6.77
2022-11-02T11:02:17.001Z,7.93
2022-11-02T11:04:45.921Z,4.53
2022-11-02T11:07:15.898Z,3.00
2022-11-02T11:09:48.807Z,4.60
2022-11-02T11:12:21.045Z,3.30
2022-11-02T11:20:34.209Z,3.80
2022-11-02T11:23:26.526Z,1.57
2022-11-02T11:25:59.420Z,2.93
2022-11-02T11:28:29.273Z,1.70
2022-11-02T11:31:05.512Z,1.50
2022-11-02T11:33:35.897Z,2.37
2022-11-02T11:36:07.008Z,1.23
2022-11-02T11:38:35.605Z,5.43
2022-11-02T11:41:04.232Z,1.27
2022-11-02T11:43:35.038Z,2.93
2022-11-02T11:46:06.862Z,2.53
2022-11-02T11:48:41.511Z,0.77
2022-11-02T11:51:25.668Z,1.80
2022-11-02T11:54:07.850Z,2.80
2022-11-02T11:56:36.408Z,0.50
2022-11-02T11:59:04.931Z,3.30
2022-11-02T12:01:40.849Z,1.90
2022-11-02T12:04:10.900Z,1.40
2022-11-02T12:06:44.383Z,5.03
2022-11-02T12:09:19.433Z,1.30
2022-11-02T12:11:53.948Z,2.60
2022-11-02T12:14:29.113Z,3.57
2022-11-02T12:17:04.204Z,3.60
2022-11-02T12:19:38.468Z,6.93
2022-11-02T12:22:13.583Z,2.33
2022-11-02T12:24:59.716Z,3.87
2022-11-02T12:27:34.899Z,3.33
2022-11-02T12:30:12.364Z,1.90
2022-11-02T12:32:58.643Z,1.70
2022-11-02T12:35:32.508Z,3.80
2022-11-02T12:38:10.151Z,4.43
2022-11-02T12:40:45.205Z,8.80
2022-11-02T12:43:21.200Z,3.37
2022-11-02T12:45:54.206Z,5.73
2022-11-02T12:48:24.656Z,4.80
2022-11-02T12:50:58.366Z,3.53
2022-11-02T12:53:41.795Z,2.83
2022-11-02T12:56:14.527Z,3.93
2022-11-02T12:58:43.327Z,3.33
2022-11-02T13:01:14.096Z,2.73
2022-11-02T13:03:48.769Z,3.97
2022-11-02T13:06:21.673Z,6.20
2022-11-02T13:08:52.804Z,1.60
2022-11-02T13:11:23.587Z,8.67
2022-11-02T13:13:54.715Z,2.57
2022-11-02T13:16:26.467Z,1.47
2022-11-02T13:18:56.392Z,3.97
2022-11-02T13:21:32.170Z,3.07
2022-11-02T13:24:01.652Z,3.30
2022-11-02T13:26:31.982Z,6.33
2022-11-02T13:29:04.473Z,3.47
2022-11-02T13:31:36.196Z,2.23
2022-11-02T13:34:06.475Z,2.50
2022-11-02T13:36:39.421Z,2.37
2022-11-02T13:39:10.876Z,4.03
2022-11-02T13:41:51.745Z,2.53
2022-11-02T13:44:44.262Z,2.70
2022-11-02T13:47:20.434Z,2.17
2022-11-02T13:49:51.709Z,6.83
2022-11-02T13:52:23.451Z,3.17
2022-11-02T13:54:53.582Z,3.43
2022-11-02T13:57:33.477Z,1.80
2022-11-02T14:00:02.568Z,1.83
2022-11-02T14:02:32.966Z,1.93
2022-11-02T14:05:02.699Z,1.73
2022-11-02T14:07:35.192Z,3.83
2022-11-02T14:10:06.897Z,3.90
2022-11-02T14:12:45.336Z,4.73
2022-11-02T14:15:43.797Z,4.77
2022-11-02T14:18:13.944Z,3.13
2022-11-02T14:20:43.258Z,4.27
2022-11-02T14:23:30.360Z,2.70
2022-11-02T14:26:00.552Z,3.57
2022-11-02T14:28:36.305Z,5.07
2022-11-02T14:31:19.558Z,2.73
2022-11-02T14:33:57.880Z,5.30
2022-11-02T14:36:36.588Z,5.80
2022-11-02T14:39:11.230Z,9.60
2022-11-02T14:41:57.592Z,4.60
2022-11-02T14:44:33.792Z,3.90
2022-11-02T14:47:05.471Z,3.00
2022-11-02T14:49:35.328Z,5.77
2022-11-02T14:52:04.998Z,3.00
2022-11-02T14:54:35.448Z,5.77
2022-11-02T14:57:06.974Z,6.07
2022-11-02T14:59:39.952Z,3.13
2022-11-02T15:02:11.564Z,8.63
2022-11-02T15:04:49.022Z,6.30
2022-11-02T15:07:20.715Z,8.57
2022-11-02T15:09:56.664Z,3.70
2022-11-02T15:12:36.439Z,6.20
2022-11-02T15:15:27.795Z,3.33
2022-11-02T15:18:00.579Z,8.23
2022-11-02T15:20:30.512Z,8.57
2022-11-02T15:23:01.772Z,6.87
2022-11-02T15:25:32.247Z,7.97
2022-11-02T15:28:05.902Z,7.53
2022-11-02T15:30:42.153Z,1.63
2022-11-02T15:33:17.448Z,5.73
2022-11-02T15:35:46.069Z,2.53
2022-11-02T15:38:18.513Z,7.53
2022-11-02T15:40:50.023Z,4.57
2022-11-02T15:43:39.560Z,7.60
2022-11-02T15:46:13.114Z,6.60
2022-11-02T15:48:45.620Z,3.93
2022-11-02T15:51:17.661Z,8.97
2022-11-02T15:53:57.939Z,4.93
2022-11-02T15:56:50.063Z,6.47
2022-11-02T15:59:33.329Z,7.23
2022-11-02T16:02:12.486Z,4.73
2022-11-02T16:04:43.611Z,9.20
2022-11-02T16:07:17.358Z,6.47
2022-11-02T16:09:46.990Z,3.57
2022-11-02T16:12:17.148Z,4.07
2022-11-02T16:14:46.268Z,10.90
2022-11-02T16:17:23.008Z,4.87
2022-11-02T16:19:51.514Z,13.50
2022-11-02T16:22:24.334Z,4.87
2022-11-02T16:24:53.493Z,4.70
2022-11-02T16:27:22.500Z,3.83
2022-11-02T16:29:51.656Z,6.07
2022-11-02T16:32:20.232Z,8.10
2022-11-02T16:34:50.072Z,6.87
2022-11-02T16:37:19.213Z,4.13
2022-11-02T16:39:48.761Z,4.67
2022-11-02T16:42:18.179Z,6.20
2022-11-02T16:44:56.066Z,5.37
2022-11-02T16:47:31.520Z,5.20
2022-11-02T16:50:01.387Z,6.13
2022-11-02T16:52:32.076Z,4.70
2022-11-02T16:55:00.640Z,5.93
2022-11-02T16:57:30.212Z,6.67
2022-11-02T16:59:59.304Z,4.93
2022-11-02T17:02:32.598Z,6.10
2022-11-02T17:05:06.176Z,4.57
2022-11-02T17:07:37.570Z,4.43
2022-11-02T17:10:06.812Z,7.37
2022-11-02T17:12:36.652Z,7.90
2022-11-02T17:15:06.604Z,5.77
2022-11-02T17:17:39.739Z,7.43
2022-11-02T17:20:17.342Z,7.77
2022-11-02T17:22:53.550Z,4.93
2022-11-02T17:25:23.517Z,6.33
2022-11-02T17:27:52.407Z,3.33
2022-11-02T17:30:42.541Z,8.50
2022-11-02T17:33:11.964Z,6.67
2022-11-02T17:35:46.536Z,7.47
2022-11-02T17:38:15.096Z,9.27
2022-11-02T17:40:43.780Z,4.63
2022-11-02T17:43:11.251Z,5.63
2022-11-02T17:45:39.944Z,3.57
2022-11-02T17:48:09.823Z,7.20
2022-11-02T17:50:39.117Z,9.30
2022-11-02T17:53:13.269Z,4.33
2022-11-02T17:55:42.208Z,8.30
2022-11-02T17:58:13.739Z,8.43
2022-11-02T18:00:42.272Z,7.97
2022-11-02T18:03:15.249Z,5.50
2022-11-02T18:05:46.765Z,5.03
2022-11-02T18:08:20.192Z,9.93
2022-11-02T18:10:49.377Z,5.27
2022-11-02T18:13:18.686Z,7.60
2022-11-02T18:15:47.269Z,3.80
2022-11-02T18:18:16.104Z,5.33
2022-11-02T18:20:45.088Z,5.47
2022-11-02T18:23:16.690Z,8.03
2022-11-02T18:25:46.620Z,7.67
2022-11-02T18:28:15.217Z,10.10
2022-11-02T18:30:44.382Z,5.47
2022-11-02T18:33:14.042Z,9.37
2022-11-02T18:35:44.324Z,5.10
2022-11-02T18:38:13.160Z,6.80
2022-11-02T18:40:41.589Z,9.50
2022-11-02T18:43:11.723Z,4.93
2022-11-02T18:45:40.148Z,8.23
2022-11-02T18:48:09.706Z,6.20
2022-11-02T18:50:38.360Z,6.90
2022-11-02T18:53:06.771Z,6.10
2022-11-02T18:55:35.188Z,3.93
2022-11-02T18:58:04.172Z,5.73
2022-11-02T19:00:34.288Z,3.17
2022-11-02T19:03:02.724Z,5.73
2022-11-02T19:05:49.329Z,6.10
2022-11-02T19:08:35.312Z,9.20
2022-11-02T19:11:03.896Z,3.53
2022-11-02T19:13:32.323Z,2.93
2022-11-02T19:16:02.130Z,9.03
2022-11-02T19:18:30.707Z,6.07
2022-11-02T19:21:00.008Z,3.10
2022-11-02T19:23:28.407Z,7.43
2022-11-02T19:25:56.915Z,4.47
2022-11-02T19:28:25.348Z,9.77
2022-11-02T19:30:53.760Z,4.57
2022-11-02T19:33:23.669Z,8.53
2022-11-02T19:35:58.431Z,7.13
2022-11-02T19:38:27.229Z,4.73
2022-11-02T19:41:02.540Z,8.10
2022-11-02T19:43:31.121Z,2.50
2022-11-02T19:46:03.127Z,6.83
2022-11-02T19:48:33.452Z,2.20
2022-11-02T19:51:08.999Z,4.60
2022-11-02T19:53:37.800Z,6.80
2022-11-02T19:56:07.136Z,6.23
2022-11-02T19:58:35.580Z,6.37
2022-11-02T20:01:07.524Z,6.13
2022-11-02T20:03:37.725Z,8.97
2022-11-02T20:06:07.381Z,8.50
2022-11-02T20:08:36.160Z,10.73
2022-11-02T20:11:05.617Z,2.73
2022-11-02T20:13:34.914Z,5.13
2022-11-02T20:16:03.811Z,6.07
2022-11-02T20:18:32.688Z,7.63
2022-11-02T20:21:06.140Z,2.93
2022-11-02T20:23:35.564Z,3.70
2022-11-02T20:26:04.887Z,2.50
2022-11-02T20:28:33.427Z,6.23
2022-11-02T20:31:01.927Z,2.27
2022-11-02T20:33:30.372Z,10.37
2022-11-02T20:35:58.796Z,3.90
2022-11-02T20:38:28.675Z,4.43
2022-11-02T20:40:57.840Z,4.60
2022-11-02T20:43:26.255Z,2.27
2022-11-02T20:48:52.893Z,5.47
2022-11-02T20:51:22.376Z,4.97
2022-11-02T20:53:52.765Z,2.83
2022-11-02T20:56:21.405Z,7.83
2022-11-02T20:58:55.508Z,4.83
2022-11-02T21:01:24.428Z,4.40
2022-11-02T21:03:53.190Z,6.50
2022-11-02T21:06:21.609Z,7.20
2022-11-02T21:08:50.040Z,8.17
2022-11-02T21:11:37.325Z,5.10
2022-11-02T21:14:05.764Z,4.77
2022-11-02T21:16:35.415Z,2.50
2022-11-02T21:19:03.914Z,4.50
2022-11-02T21:21:32.353Z,5.63
2022-11-02T21:24:00.853Z,6.20
2022-11-02T21:26:30.675Z,5.20
2022-11-02T21:28:59.125Z,2.80
2022-11-02T21:31:27.694Z,9.17
2022-11-02T21:33:56.164Z,2.40
2022-11-02T21:36:24.603Z,7.93
2022-11-02T21:38:53.295Z,8.57
2022-11-02T21:41:22.390Z,4.33
2022-11-02T21:43:52.309Z,2.67
2022-11-02T21:46:21.074Z,8.57
2022-11-02T21:48:49.810Z,5.53
2022-11-02T21:51:19.130Z,8.67
2022-11-02T21:53:48.432Z,3.27
2022-11-02T21:56:17.628Z,6.27
2022-11-02T21:58:46.700Z,2.80
2022-11-02T22:01:34.910Z,6.80
2022-11-02T22:04:03.683Z,6.10
2022-11-02T22:06:32.451Z,3.10
2022-11-02T22:09:01.047Z,3.43
2022-11-02T22:11:29.501Z,8.17
2022-11-02T22:13:58.896Z,3.10
2022-11-02T22:16:29.412Z,3.10
2022-11-02T22:18:58.395Z,8.87
2022-11-02T22:21:27.589Z,8.77
2022-11-02T22:23:56.591Z,5.10
2022-11-02T22:26:25.640Z,9.60
2022-11-02T22:28:54.486Z,8.07
2022-11-02T22:31:23.847Z,6.73
2022-11-02T22:33:54.306Z,10.37
2022-11-02T22:36:23.711Z,2.33
2022-11-02T22:38:51.548Z,5.57
2022-11-02T22:41:21.468Z,8.10
2022-11-02T22:43:50.433Z,9.90
2022-11-02T22:46:18.876Z,4.17
2022-11-02T22:48:47.456Z,9.90
2022-11-02T22:51:19.092Z,10.60
2022-11-02T22:53:47.539Z,7.87
2022-11-02T22:56:16.599Z,7.83
2022-11-02T22:58:45.956Z,12.77
2022-11-02T23:01:16.459Z,9.50
2022-11-02T23:03:45.249Z,6.63
2022-11-02T23:06:14.232Z,3.57
2022-11-02T23:08:45.830Z,6.60
2022-11-02T23:11:22.568Z,8.83
2022-11-02T23:13:51.838Z,9.97
2022-11-02T23:16:23.783Z,8.10
2022-11-02T23:19:11.046Z,6.93
2022-11-02T23:21:39.544Z,6.37
2022-11-02T23:24:27.584Z,4.90
2022-11-02T23:26:56.227Z,12.50
2022-11-02T23:29:42.337Z,7.80
2022-11-02T23:32:26.986Z,14.57
2022-11-02T23:35:10.057Z,7.83
2022-11-02T23:37:38.864Z,12.20
2022-11-02T23:40:09.493Z,8.13
2022-11-02T23:42:37.921Z,8.03
2022-11-02T23:45:06.800Z,6.53
2022-11-02T23:47:51.919Z,10.33
2022-11-02T23:50:35.062Z,6.93
2022-11-02T23:53:21.380Z,14.53
2022-11-02T23:56:09.623Z,10.03
2022-11-02T23:58:38.189Z,15.40
